Time;durP1;ratioP1;P1;durP2;ratioP2;P2;SDS_P1;SDS_P2;PMS_P1;PMS_P2;Temp;Humidity;BMP_temperature;BMP_pressure;BME280_temperature;BME280_humidity;BME280_pressure;Samples;Min_cycle;Max_cycle;Signal;HPM_P1;HPM_P2
2022/08/24 00:01:26;;;;;;;5.87;5.40;;;;;;;20.57;63.14;156652.16;4993612;28;20500;-83
2022/08/24 00:03:56;;;;;;;6.03;5.53;;;;;;;20.55;62.94;156646.91;5010500;28;21006;-83
2022/08/24 00:06:23;;;;;;;6.17;5.70;;;;;;;20.53;63.58;156643.03;5017389;28;20469;-83
2022/08/24 00:08:52;;;;;;;6.63;6.17;;;;;;;20.52;62.78;156639.06;4990798;28;20460;-83
2022/08/24 00:11:19;;;;;;;6.27;5.67;;;;;;;20.49;62.96;156632.56;5006479;28;20519;-83
2022/08/24 00:13:48;;;;;;;5.80;5.40;;;;;;;20.46;62.70;156624.78;4989809;28;20500;-83
2022/08/24 00:16:18;;;;;;;6.10;5.60;;;;;;;20.43;63.28;156615.63;4992643;28;20553;-83
2022/08/24 00:18:47;;;;;;;6.10;5.50;;;;;;;20.39;63.50;156606.47;5010591;28;20445;-83
2022/08/24 00:21:13;;;;;;;6.93;6.40;;;;;;;20.39;63.20;156605.16;5009795;28;20452;-83
2022/08/24 00:23:40;;;;;;;5.80;5.40;;;;;;;20.37;63.63;156601.28;5008728;28;20468;-83
2022/08/24 00:26:08;;;;;;;6.83;6.23;;;;;;;20.34;63.29;156593.44;5008386;28;20575;-83
2022/08/24 00:28:35;;;;;;;5.53;5.03;;;;;;;20.30;63.75;156583.03;5026375;28;20499;-83
2022/08/24 00:31:03;;;;;;;7.40;5.90;;;;;;;20.27;63.70;156575.19;5010136;28;20436;-84
2022/08/24 00:33:30;;;;;;;6.00;5.50;;;;;;;20.27;63.23;156575.19;5010026;28;20499;-83
2022/08/24 00:35:57;;;;;;;6.57;6.07;;;;;;;20.27;63.25;156573.88;5007645;28;20448;-83
2022/08/24 00:38:24;;;;;;;5.50;5.00;;;;;;;20.25;63.05;156570.00;4992922;28;20445;-83
2022/08/24 00:40:51;;;;;;;6.30;5.60;;;;;;;20.25;63.07;156568.69;5010657;28;20468;-83
2022/08/24 00:43:20;;;;;;;5.90;5.40;;;;;;;20.20;63.02;156556.84;5008996;28;20487;-83
2022/08/24 00:45:50;;;;;;;5.70;5.17;;;;;;;20.16;63.42;156546.44;4991168;28;20496;-83
2022/08/24 00:48:22;;;;;;;5.63;5.13;;;;;;;20.12;63.19;156536.00;4993145;28;20993;-83
2022/08/24 00:50:53;;;;;;;5.70;5.30;;;;;;;20.09;62.94;156528.22;5009191;28;20479;-83
2022/08/24 00:53:28;;;;;;;6.10;5.60;;;;;;;20.06;62.49;156520.38;4992952;28;20455;-83
2022/08/24 00:55:59;;;;;;;6.60;6.00;;;;;;;20.03;62.91;156513.88;5010356;28;20444;-83
2022/08/24 00:58:29;;;;;;;5.50;5.00;;;;;;;20.02;62.65;156511.22;4992326;28;20444;-83
2022/08/24 01:01:05;;;;;;;6.17;5.67;;;;;;;20.00;62.65;156506.03;5008525;28;20437;-83
2022/08/24 01:03:35;;;;;;;6.00;5.50;;;;;;;19.96;62.35;156494.31;5010434;28;20788;-83
2022/08/24 01:06:02;;;;;;;5.83;5.43;;;;;;;19.94;62.72;156489.06;5005479;28;20547;-83
2022/08/24 01:08:29;;;;;;;6.47;5.87;;;;;;;19.93;62.34;156487.78;4991512;28;20460;-83
2022/08/24 01:10:58;;;;;;;5.83;5.40;;;;;;;19.90;62.65;156478.66;5026298;28;20567;-83
2022/08/24 01:13:25;;;;;;;6.40;5.90;;;;;;;19.88;62.74;156473.44;5025248;28;20461;-83
2022/08/24 01:15:55;;;;;;;5.70;5.17;;;;;;;19.83;62.56;156461.66;4992747;28;20440;-83
2022/08/24 01:21:16;;;;;;;5.97;5.47;;;;;;;19.75;62.36;156440.81;4995846;28;20429;-83
2022/08/24 01:23:46;;;;;;;6.37;5.77;;;;;;;19.73;62.30;156434.28;4997911;28;20459;-83
2022/08/24 01:26:19;;;;;;;5.20;4.80;;;;;;;19.67;62.28;156419.94;5025325;28;20679;-83
2022/08/24 01:28:48;;;;;;;5.87;5.03;;;;;;;19.63;63.04;156408.22;4993220;28;20500;-83
2022/08/24 01:31:15;;;;;;;6.33;5.73;;;;;;;19.59;63.30;156397.81;4985788;28;20438;-83
2022/08/24 01:33:42;;;;;;;5.33;4.93;;;;;;;19.55;64.01;156387.38;5002465;28;20819;-83
2022/08/24 01:36:15;;;;;;;9.10;5.97;;;;;;;19.48;64.13;156369.13;5013021;28;20857;-83
2022/08/24 01:38:43;;;;;;;6.67;6.07;;;;;;;19.43;64.25;156358.69;5013084;28;20452;-83
2022/08/24 01:41:10;;;;;;;5.90;5.50;;;;;;;19.42;64.10;156356.09;5013069;28;20445;-83
2022/08/24 01:43:37;;;;;;;6.27;5.70;;;;;;;19.34;64.93;156335.19;4984908;28;20479;-83
2022/08/24 01:46:06;;;;;;;5.70;5.20;;;;;;;19.27;65.87;156316.91;5011771;28;20479;-83
2022/08/24 01:48:36;;;;;;;6.77;5.70;;;;;;;19.20;65.36;156298.69;4995120;28;20880;-83
2022/08/24 01:51:02;;;;;;;6.90;6.20;;;;;;;19.17;66.10;156290.88;5013045;28;20436;-83
2022/08/24 01:53:29;;;;;;;5.80;5.30;;;;;;;19.14;66.24;156283.03;5001114;28;20457;-83
2022/08/24 01:55:57;;;;;;;6.20;5.73;;;;;;;19.12;66.46;156277.84;5013196;28;20468;-83
2022/08/24 01:58:24;;;;;;;6.50;6.00;;;;;;;19.07;67.44;156263.50;5011421;28;20797;-83
2022/08/24 02:00:51;;;;;;;6.80;6.30;;;;;;;19.04;67.41;156256.97;5012105;28;20935;-82
2022/08/24 02:03:19;;;;;;;7.33;6.67;;;;;;;19.03;67.63;156254.41;4995517;28;20457;-83
2022/08/24 02:05:53;;;;;;;7.50;6.90;;;;;;;19.02;68.17;156250.47;4995263;28;20460;-83
2022/08/24 02:08:20;;;;;;;8.33;7.63;;;;;;;18.99;68.32;156243.97;5011771;28;20551;-83
2022/08/24 02:10:46;;;;;;;7.43;6.73;;;;;;;18.92;69.13;156225.72;5011456;28;20491;-83
2022/08/24 02:13:15;;;;;;;7.50;6.80;;;;;;;18.89;69.21;156217.91;4993463;28;20465;-83
2022/08/24 02:15:42;;;;;;;8.80;7.90;;;;;;;18.87;69.56;156211.41;4994934;28;20548;-83
2022/08/24 02:18:11;;;;;;;7.43;6.83;;;;;;;18.81;70.18;156198.38;5009880;28;20449;-82
2022/08/24 02:20:39;;;;;;;8.20;7.30;;;;;;;18.78;70.07;156189.22;4991476;28;20452;-83
2022/08/24 02:23:07;;;;;;;11.50;7.50;;;;;;;18.75;70.29;156181.41;4995068;28;20947;-83
2022/08/24 02:25:34;;;;;;;9.23;7.00;;;;;;;18.76;70.61;156184.03;5012205;28;20495;-83
2022/08/24 02:28:01;;;;;;;7.40;6.80;;;;;;;18.68;70.50;156163.19;5028380;28;20468;-83
2022/08/24 02:30:31;;;;;;;8.93;7.97;;;;;;;18.61;70.98;156144.97;5009973;28;20555;-83
2022/08/24 02:32:58;;;;;;;8.30;7.60;;;;;;;18.55;71.55;156130.63;5001053;28;20549;-83
2022/08/24 02:35:26;;;;;;;7.70;7.10;;;;;;;18.50;71.92;156116.31;5028540;28;20441;-82
2022/08/24 02:37:53;;;;;;;9.80;8.90;;;;;;;18.46;72.12;156105.81;4995665;28;20449;-83
2022/08/24 02:40:20;;;;;;;10.07;7.60;;;;;;;18.43;72.52;156097.97;5009635;28;20461;-83
2022/08/24 02:42:47;;;;;;;9.10;8.20;;;;;;;18.43;72.82;156097.97;4994305;28;20757;-83
2022/08/24 02:45:14;;;;;;;12.20;8.80;;;;;;;18.35;72.51;156077.19;4994095;28;20449;-82
2022/08/24 02:47:43;;;;;;;9.37;8.50;;;;;;;18.31;72.69;156066.75;5010323;28;20523;-82
2022/08/24 02:50:13;;;;;;;8.40;7.70;;;;;;;18.28;73.17;156060.22;5007406;28;20449;-82
2022/08/24 02:52:40;;;;;;;8.73;8.03;;;;;;;18.27;73.08;156058.91;5011644;28;20931;-83
2022/08/24 02:55:08;;;;;;;8.80;8.10;;;;;;;18.24;73.42;156051.09;5012005;28;20476;-82
2022/08/24 02:57:36;;;;;;;8.17;7.30;;;;;;;18.20;73.53;156039.38;5011730;28;20804;-82
2022/08/24 03:00:05;;;;;;;10.73;9.40;;;;;;;18.14;73.63;156025.06;5014304;28;20453;-82
2022/08/24 03:02:32;;;;;;;10.90;8.30;;;;;;;18.10;74.17;156014.66;4996353;28;20460;-83
2022/08/24 03:05:00;;;;;;;8.63;7.90;;;;;;;18.12;73.85;156019.88;5010449;28;20456;-83
2022/08/24 03:07:27;;;;;;;9.40;8.60;;;;;;;18.14;73.29;156025.06;5006231;28;20572;-83
2022/08/24 03:09:54;;;;;;;10.30;9.50;;;;;;;18.13;73.76;156022.50;4998171;28;20536;-82
2022/08/24 03:12:22;;;;;;;9.80;8.90;;;;;;;18.11;73.14;156017.25;5009062;28;20485;-83
2022/08/24 03:14:49;;;;;;;9.70;8.73;;;;;;;18.11;74.03;156017.25;4994804;28;20445;-83
2022/08/24 03:17:16;;;;;;;9.60;8.80;;;;;;;18.07;73.43;156006.84;5010266;28;20532;-82
2022/08/24 03:19:42;;;;;;;9.70;8.80;;;;;;;18.02;73.81;155992.53;5026902;28;20452;-82
2022/08/24 03:22:12;;;;;;;9.07;8.27;;;;;;;17.98;74.04;155983.38;4993611;28;20453;-82
2022/08/24 03:24:38;;;;;;;10.57;9.57;;;;;;;17.96;74.73;155978.19;4993857;28;20471;-83
2022/08/24 03:27:06;;;;;;;9.00;8.27;;;;;;;17.98;74.26;155982.06;5023970;28;20512;-83
2022/08/24 03:29:34;;;;;;;11.33;8.63;;;;;;;17.94;74.27;155973.00;5013038;28;20456;-83
2022/08/24 03:32:01;;;;;;;9.07;8.37;;;;;;;17.94;73.91;155973.00;5010466;28;20480;-82
2022/08/24 03:34:28;;;;;;;8.20;7.60;;;;;;;18.03;73.89;155995.16;5011296;28;20814;-82
2022/08/24 03:36:55;;;;;;;9.20;8.50;;;;;;;17.97;74.56;155980.81;5006082;28;20533;-82
2022/08/24 03:39:23;;;;;;;9.30;8.43;;;;;;;17.94;74.70;155973.00;4982739;28;20445;-83
2022/08/24 03:41:53;;;;;;;8.70;8.00;;;;;;;17.90;75.17;155962.56;5010206;28;20444;-83
2022/08/24 03:44:20;;;;;;;8.70;8.00;;;;;;;17.88;74.94;155957.34;5018379;28;20543;-83
2022/08/24 03:46:47;;;;;;;8.60;7.90;;;;;;;17.81;75.31;155939.16;5010222;28;20494;-82
2022/08/24 03:49:17;;;;;;;9.63;8.87;;;;;;;17.73;76.59;155917.00;5009690;28;20484;-82
2022/08/24 03:51:44;;;;;;;8.23;7.63;;;;;;;17.68;76.46;155905.28;4994969;28;20474;-83
2022/08/24 03:54:12;;;;;;;9.13;8.33;;;;;;;17.62;76.82;155889.66;5010523;28;20439;-82
2022/08/24 03:56:41;;;;;;;8.93;8.10;;;;;;;17.59;76.80;155881.84;5008839;28;20448;-83
2022/08/24 03:59:09;;;;;;;8.97;8.20;;;;;;;17.59;76.83;155881.84;5010971;28;20480;-82
2022/08/24 04:01:39;;;;;;;8.53;7.83;;;;;;;17.55;77.03;155872.72;4997458;28;20449;-82
2022/08/24 04:04:07;;;;;;;7.90;7.30;;;;;;;17.56;77.06;155875.34;5014054;28;20496;-82
2022/08/24 04:06:36;;;;;;;10.23;9.33;;;;;;;17.53;77.08;155866.22;4991497;28;20479;-82
2022/08/24 04:09:03;;;;;;;9.80;9.00;;;;;;;17.53;77.21;155867.53;5010723;28;20475;-82
2022/08/24 04:11:33;;;;;;;9.50;8.63;;;;;;;17.51;77.25;155862.28;4994323;28;20437;-82
2022/08/24 04:14:02;;;;;;;9.93;9.00;;;;;;;17.53;77.27;155866.22;4993979;28;20805;-82
2022/08/24 04:16:30;;;;;;;9.83;9.10;;;;;;;17.47;77.79;155851.84;4993454;28;20453;-82
2022/08/24 04:19:14;;;;;;;9.80;9.00;;;;;;;17.47;77.75;155851.84;5007592;28;20485;-82
2022/08/24 04:21:43;;;;;;;9.57;8.70;;;;;;;17.44;78.38;155844.06;5013276;28;20442;-82
2022/08/24 04:24:11;;;;;;;10.97;9.90;;;;;;;17.45;78.37;155845.34;4989968;28;20448;-82
2022/08/24 04:26:40;;;;;;;10.60;9.63;;;;;;;17.44;78.15;155844.06;5018309;28;20492;-82
2022/08/24 04:29:10;;;;;;;9.67;8.77;;;;;;;17.46;78.34;155847.94;4993922;28;20447;-82
2022/08/24 04:31:42;;;;;;;10.10;9.20;;;;;;;17.46;78.18;155847.94;4993980;28;20452;-82
2022/08/24 04:34:10;;;;;;;9.47;8.67;;;;;;;17.43;78.31;155841.44;4992513;28;20577;-82
2022/08/24 04:36:39;;;;;;;9.90;8.90;;;;;;;17.43;78.41;155840.13;4988981;28;20426;-82
2022/08/24 04:39:06;;;;;;;11.33;9.97;;;;;;;17.43;78.61;155840.13;5008680;28;20449;-82
2022/08/24 04:41:56;;;;;;;10.77;9.77;;;;;;;17.47;78.44;155850.56;5007162;28;20557;-82
2022/08/24 04:44:25;;;;;;;10.57;9.77;;;;;;;17.48;78.39;155853.16;4991349;28;20556;-82
2022/08/24 04:46:53;;;;;;;10.37;9.50;;;;;;;17.45;78.34;155845.34;5007235;28;20464;-82
2022/08/24 04:49:20;;;;;;;9.60;8.70;;;;;;;17.46;78.41;155847.94;4992480;28;20491;-82
2022/08/24 04:51:47;;;;;;;12.47;9.17;;;;;;;17.47;78.69;155850.56;5009978;28;20444;-81
2022/08/24 04:54:15;;;;;;;9.60;8.80;;;;;;;17.48;78.73;155853.16;4988324;28;20527;-82
2022/08/24 04:56:43;;;;;;;10.57;8.80;;;;;;;17.49;78.77;155855.78;4992606;28;20451;-81
2022/08/24 04:59:10;;;;;;;10.47;9.67;;;;;;;17.54;78.74;155868.84;5010446;28;20535;-81
2022/08/24 05:01:41;;;;;;;9.97;9.17;;;;;;;17.53;78.66;155867.53;4991641;28;20539;-81
2022/08/24 05:04:08;;;;;;;10.97;10.07;;;;;;;17.57;78.92;155876.66;5009851;28;20544;-81
2022/08/24 05:06:34;;;;;;;9.57;8.87;;;;;;;17.59;78.85;155883.16;4994681;28;20473;-81
2022/08/24 05:09:04;;;;;;;10.30;9.40;;;;;;;17.63;78.57;155893.53;5013013;28;20499;-82
2022/08/24 05:11:30;;;;;;;10.10;9.03;;;;;;;17.70;78.76;155910.50;4986295;28;20446;-82
2022/08/24 05:13:58;;;;;;;10.53;8.87;;;;;;;17.78;78.38;155930.00;5028905;28;20452;-82
2022/08/24 05:16:26;;;;;;;10.57;9.67;;;;;;;17.84;78.07;155945.66;5012666;28;20448;-82
2022/08/24 05:18:54;;;;;;;10.30;9.50;;;;;;;17.91;77.92;155965.16;5011986;28;20492;-82
2022/08/24 05:21:23;;;;;;;10.20;9.30;;;;;;;17.97;77.74;155980.81;5002545;28;20952;-82
2022/08/24 05:23:50;;;;;;;9.70;8.90;;;;;;;18.06;77.54;156004.22;4993073;28;20928;-82
2022/08/24 05:26:19;;;;;;;9.47;8.70;;;;;;;18.16;77.12;156030.25;4992245;28;20484;-82
2022/08/24 05:28:47;;;;;;;9.23;8.27;;;;;;;18.24;76.92;156051.09;5006662;28;20486;-82
2022/08/24 05:31:16;;;;;;;9.53;8.73;;;;;;;18.37;76.59;156082.38;5013945;28;20935;-82
2022/08/24 05:33:43;;;;;;;9.43;8.63;;;;;;;18.57;76.44;156135.84;5013042;28;20514;-82
2022/08/24 05:36:17;;;;;;;10.20;9.40;;;;;;;18.97;76.07;156238.75;5029001;28;20987;-81
2022/08/24 05:38:44;;;;;;;10.50;9.47;;;;;;;19.33;75.24;156332.56;4992811;28;20470;-81
2022/08/24 05:41:11;;;;;;;9.33;8.50;;;;;;;19.68;73.72;156421.25;4993668;28;20446;-81
2022/08/24 05:43:39;;;;;;;8.07;7.33;;;;;;;19.99;72.61;156502.09;5013651;28;20456;-81
2022/08/24 05:46:06;;;;;;;9.47;8.03;;;;;;;20.23;71.11;156564.69;4987397;28;20448;-81
2022/08/24 05:48:36;;;;;;;8.10;7.40;;;;;;;20.44;69.92;156618.22;4994744;28;20622;-81
2022/08/24 05:51:09;;;;;;;8.40;7.27;;;;;;;20.62;68.82;156665.22;5005026;28;20447;-81
2022/08/24 05:53:47;;;;;;;8.67;7.97;;;;;;;20.80;67.53;156710.84;5011532;28;20615;-81
2022/08/24 05:56:16;;;;;;;9.20;8.40;;;;;;;20.98;66.30;156757.81;4995338;28;20530;-81
2022/08/24 05:58:43;;;;;;;8.53;7.73;;;;;;;21.11;65.08;156791.81;5010469;28;20445;-81
2022/08/24 06:01:12;;;;;;;8.20;7.40;;;;;;;21.19;65.23;156812.69;4992306;28;20446;-81
2022/08/24 06:03:41;;;;;;;8.10;7.50;;;;;;;21.36;64.68;156857.09;5001690;28;20897;-81
2022/08/24 06:06:10;;;;;;;8.23;7.40;;;;;;;21.64;64.31;156930.16;4992981;28;20446;-81
2022/08/24 06:08:37;;;;;;;7.47;6.87;;;;;;;21.89;63.38;156992.88;4996212;28;21038;-81
2022/08/24 06:11:06;;;;;;;8.87;8.07;;;;;;;22.17;62.03;157066.00;4995639;28;20437;-81
2022/08/24 06:13:33;;;;;;;8.13;7.53;;;;;;;22.42;61.06;157131.31;4994383;28;20451;-81
2022/08/24 06:16:05;;;;;;;8.43;7.70;;;;;;;22.66;60.04;157194.09;5002648;28;20448;-81
2022/08/24 06:18:33;;;;;;;8.70;7.90;;;;;;;22.89;59.10;157254.16;4991185;28;20448;-81
2022/08/24 06:21:05;;;;;;;11.63;7.00;;;;;;;22.95;58.32;157268.56;5011239;28;20457;-80
2022/08/24 06:23:36;;;;;;;9.23;8.57;;;;;;;23.03;57.30;157289.47;5027810;28;20441;-81
2022/08/24 06:28:49;;;;;;;7.17;6.60;;;;;;;23.30;56.96;157358.72;5010825;28;20471;-81
2022/08/24 06:31:16;;;;;;;7.73;6.93;;;;;;;23.60;56.03;157438.50;5011881;28;20467;-81
2022/08/24 06:33:43;;;;;;;7.00;6.40;;;;;;;23.93;55.04;157523.47;5011123;28;20437;-81
2022/08/24 06:36:11;;;;;;;7.70;7.10;;;;;;;24.19;54.45;157591.53;5009396;28;20449;-81
2022/08/24 06:38:38;;;;;;;8.07;7.23;;;;;;;24.45;53.11;157656.91;5010954;28;20444;-81
2022/08/24 06:41:06;;;;;;;6.97;6.47;;;;;;;24.66;53.11;157711.84;4995011;28;20567;-81
2022/08/24 06:43:33;;;;;;;6.73;6.20;;;;;;;24.77;52.17;157740.63;4994914;28;20449;-81
2022/08/24 06:46:14;;;;;;;7.10;6.40;;;;;;;25.06;52.10;157815.25;5006396;28;20503;-81
2022/08/24 06:48:44;;;;;;;6.97;6.47;;;;;;;25.06;50.17;157815.25;5007825;28;20580;-81
2022/08/24 06:51:22;;;;;;;7.20;6.60;;;;;;;25.05;50.48;157813.91;5003708;28;20499;-81
2022/08/24 06:53:50;;;;;;;6.93;5.87;;;;;;;25.30;50.51;157879.38;5005261;28;21022;-81
2022/08/24 06:56:18;;;;;;;7.00;6.50;;;;;;;25.52;49.22;157935.72;4997410;28;20546;-81
2022/08/24 06:58:45;;;;;;;5.93;5.53;;;;;;;25.73;47.97;157989.38;5001910;28;20527;-81
2022/08/24 07:01:22;;;;;;;6.33;5.73;;;;;;;26.05;47.62;158073.16;5001049;28;20445;-81
2022/08/24 07:03:50;;;;;;;6.30;5.80;;;;;;;26.28;47.24;158132.13;5001733;28;20496;-81
2022/08/24 07:06:35;;;;;;;6.40;5.80;;;;;;;26.42;46.14;158170.06;4991013;28;20774;-81
2022/08/24 07:09:05;;;;;;;7.60;7.00;;;;;;;26.55;45.97;158204.19;4992213;28;20470;-81
2022/08/24 07:11:34;;;;;;;6.00;5.37;;;;;;;26.69;45.72;158238.22;4988356;28;20444;-81
2022/08/24 07:14:02;;;;;;;7.13;6.53;;;;;;;27.02;44.78;158326.03;5011035;28;20432;-81
2022/08/24 07:16:31;;;;;;;6.63;6.00;;;;;;;26.91;46.72;158295.88;4994621;28;20444;-81
2022/08/24 07:19:01;;;;;;;7.37;6.57;;;;;;;26.83;47.18;158276.25;4995787;28;20437;-81
2022/08/24 07:21:30;;;;;;;7.23;6.73;;;;;;;26.91;46.53;158297.19;4992080;28;20801;-75
2022/08/24 07:23:59;;;;;;;6.80;6.30;;;;;;;27.26;45.87;158386.28;4992853;28;20436;-75
2022/08/24 07:26:28;;;;;;;6.90;6.33;;;;;;;27.08;45.88;158340.44;4992763;28;20449;-75
2022/08/24 07:29:03;;;;;;;7.27;6.67;;;;;;;27.23;45.43;158378.41;4981195;28;20508;-75
2022/08/24 07:31:34;;;;;;;8.10;7.30;;;;;;;26.90;46.25;158293.28;5010818;28;20507;-75
2022/08/24 07:34:10;;;;;;;8.77;7.23;;;;;;;27.10;46.32;158347.00;5011781;28;20532;-75
2022/08/24 07:36:39;;;;;;;7.57;6.97;;;;;;;26.99;46.32;158316.84;4994358;28;20433;-75
2022/08/24 07:39:09;;;;;;;7.97;7.17;;;;;;;27.49;45.78;158447.94;4994049;28;20472;-75
2022/08/24 07:41:38;;;;;;;7.57;6.97;;;;;;;27.82;46.01;158531.81;5004265;28;20940;-75
2022/08/24 07:44:06;;;;;;;8.03;7.43;;;;;;;27.92;44.64;158558.03;5007515;28;20910;-81
2022/08/24 07:46:35;;;;;;;7.30;6.70;;;;;;;27.61;45.06;158479.41;5022928;28;20460;-83
2022/08/24 07:49:03;;;;;;;7.27;6.77;;;;;;;27.74;44.37;158513.47;4988591;28;21002;-75
2022/08/24 07:51:31;;;;;;;7.30;6.80;;;;;;;28.14;44.04;158617.09;5002183;28;20426;-77
2022/08/24 07:53:58;;;;;;;6.80;6.20;;;;;;;28.26;43.40;158647.22;5005088;28;20531;-76
2022/08/24 07:56:30;;;;;;;7.03;6.53;;;;;;;28.06;43.51;158594.78;4992604;28;20448;-76
2022/08/24 07:59:00;;;;;;;7.33;6.67;;;;;;;28.27;43.03;158649.84;5006110;28;20559;-77
2022/08/24 08:01:29;;;;;;;7.20;6.17;;;;;;;28.37;43.13;158676.06;4991597;28;20460;-77
2022/08/24 08:03:58;;;;;;;6.53;6.03;;;;;;;27.89;44.42;158550.16;5008686;28;20532;-77
2022/08/24 08:06:25;;;;;;;5.73;5.17;;;;;;;27.97;41.82;158572.44;4992793;28;20593;-76
2022/08/24 08:08:56;;;;;;;5.40;4.90;;;;;;;28.20;42.04;158631.47;5008754;28;20496;-75
2022/08/24 08:11:24;;;;;;;5.33;4.93;;;;;;;28.45;39.42;158697.06;5007520;28;20449;-78
2022/08/24 08:13:54;;;;;;;5.07;4.67;;;;;;;28.18;38.12;158626.22;5006520;28;20477;-77
2022/08/24 08:16:21;;;;;;;4.53;4.10;;;;;;;27.68;37.00;158497.75;5008004;28;20445;-77
2022/08/24 08:18:48;;;;;;;5.07;4.30;;;;;;;27.67;37.69;158493.78;5020850;28;20456;-77
2022/08/24 08:24:18;;;;;;;5.70;4.00;;;;;;;28.12;37.63;158610.50;5008582;28;20424;-77
2022/08/24 08:26:53;;;;;;;4.93;4.43;;;;;;;28.18;38.23;158626.22;5007261;28;20460;-77
2022/08/24 08:29:32;;;;;;;4.73;4.33;;;;;;;28.70;38.52;158761.38;5017754;28;20479;-77
2022/08/24 08:32:00;;;;;;;4.33;4.03;;;;;;;28.60;37.99;158736.38;5008937;28;20784;-77
2022/08/24 08:34:27;;;;;;;4.50;4.10;;;;;;;28.52;37.44;158715.41;5023356;28;20923;-77
2022/08/24 08:36:58;;;;;;;4.20;3.80;;;;;;;28.51;36.46;158712.81;4993562;28;20469;-77
2022/08/24 08:39:26;;;;;;;4.67;4.27;;;;;;;28.66;36.87;158752.19;5012446;28;20476;-77
2022/08/24 08:42:16;;;;;;;4.33;4.03;;;;;;;28.21;38.10;158634.09;4995816;28;20447;-77
2022/08/24 08:44:53;;;;;;;3.87;3.57;;;;;;;28.15;38.36;158618.38;4991506;28;20508;-76
2022/08/24 08:47:33;;;;;;;4.03;3.63;;;;;;;28.60;37.92;158736.38;5011308;28;20471;-76
2022/08/24 08:50:07;;;;;;;4.00;3.70;;;;;;;28.77;37.18;158779.72;5001410;28;20564;-76
2022/08/24 08:52:54;;;;;;;3.77;3.47;;;;;;;28.84;37.12;158799.38;4993211;28;20942;-76
2022/08/24 08:55:27;;;;;;;5.33;4.93;;;;;;;28.65;37.13;158749.53;4989162;28;20464;-76
2022/08/24 08:58:03;;;;;;;4.27;3.97;;;;;;;28.20;37.80;158631.47;5002524;28;21028;-76
2022/08/24 09:00:45;;;;;;;4.70;4.30;;;;;;;27.67;39.04;158495.09;5007328;28;20862;-76
2022/08/24 09:03:29;;;;;;;4.63;4.23;;;;;;;27.92;38.94;158559.34;5005297;28;20932;-76
2022/08/24 09:06:34;;;;;;;5.03;4.27;;;;;;;27.32;39.40;158402.03;5033998;28;20441;-76
2022/08/24 09:09:18;;;;;;;5.70;4.50;;;;;;;27.23;39.85;158378.41;5019036;28;20472;-76
2022/08/24 09:11:55;;;;;;;4.70;4.30;;;;;;;27.02;40.56;158324.72;5011101;28;20544;-75
2022/08/24 09:14:37;;;;;;;4.50;3.97;;;;;;;27.08;40.92;158340.44;4991487;28;20464;-76
2022/08/24 09:17:13;;;;;;;4.00;3.70;;;;;;;26.83;40.20;158276.25;5009505;28;21086;-75
2022/08/24 09:19:56;;;;;;;4.80;3.97;;;;;;;26.83;41.49;158274.91;5008437;28;20449;-76
2022/08/24 09:22:23;;;;;;;3.60;3.40;;;;;;;26.93;39.78;158302.44;4979742;28;20924;-75
2022/08/24 09:25:03;;;;;;;5.63;3.40;;;;;;;27.59;39.53;158474.13;4992447;28;20489;-75
2022/08/24 09:28:14;;;;;;;3.77;3.40;;;;;;;27.93;39.50;158560.66;5018526;28;20468;-75
2022/08/24 09:30:58;;;;;;;4.90;3.63;;;;;;;27.62;38.77;158482.00;5013289;28;20814;-75
2022/08/24 09:33:30;;;;;;;2.90;2.70;;;;;;;27.51;39.27;158453.16;5013023;28;20468;-75
2022/08/24 09:36:18;;;;;;;3.50;3.20;;;;;;;27.67;39.41;158495.09;5012518;28;20448;-75
2022/08/24 09:38:59;;;;;;;3.73;3.13;;;;;;;27.82;38.29;158533.13;5002469;28;20433;-76
2022/08/24 09:41:55;;;;;;;3.60;3.40;;;;;;;27.65;38.97;158488.53;4996866;28;20511;-76
2022/08/24 09:44:58;;;;;;;3.70;3.40;;;;;;;27.57;38.99;158468.91;5009310;28;20546;-75
2022/08/24 09:47:58;;;;;;;5.83;3.70;;;;;;;27.27;39.71;158390.19;4998591;28;20476;-75
2022/08/24 09:50:57;;;;;;;4.03;3.70;;;;;;;27.12;39.00;158352.22;5021802;28;20829;-76
2022/08/24 09:53:49;;;;;;;3.50;3.20;;;;;;;27.10;40.06;158347.00;4999121;28;20433;-75
2022/08/24 09:56:38;;;;;;;3.93;3.40;;;;;;;26.99;39.91;158318.16;5000843;28;20540;-76
2022/08/24 09:59:17;;;;;;;5.03;3.33;;;;;;;27.13;40.74;158353.53;5027564;28;20441;-75
2022/08/24 10:01:54;;;;;;;3.80;3.50;;;;;;;27.15;39.89;158360.09;5013719;28;20881;-75
2022/08/24 10:04:29;;;;;;;4.07;3.67;;;;;;;27.11;39.29;158348.31;5011080;28;20448;-75
2022/08/24 10:07:04;;;;;;;6.10;3.60;;;;;;;27.31;39.65;158399.38;5008190;28;20510;-75
2022/08/24 10:09:58;;;;;;;3.83;3.53;;;;;;;27.26;39.56;158387.59;5011709;28;20488;-75
2022/08/24 10:12:35;;;;;;;4.37;4.07;;;;;;;26.85;40.38;158281.47;5013445;28;20781;-75
2022/08/24 10:15:06;;;;;;;4.80;3.93;;;;;;;26.73;41.04;158250.00;5009463;28;20496;-75
2022/08/24 10:17:43;;;;;;;4.40;4.00;;;;;;;26.76;40.53;158256.53;5002671;28;21027;-75
2022/08/24 10:20:19;;;;;;;4.03;3.73;;;;;;;26.96;41.15;158308.97;4999691;28;20471;-75
2022/08/24 10:23:00;;;;;;;3.70;3.40;;;;;;;27.07;39.11;158337.81;5009465;28;20491;-75
2022/08/24 10:25:31;;;;;;;3.67;3.03;;;;;;;27.35;40.09;158411.16;5010036;28;20888;-75
2022/08/24 10:28:09;;;;;;;5.33;3.07;;;;;;;27.22;39.68;158377.09;5011773;28;20469;-75
2022/08/24 10:31:04;;;;;;;3.70;3.40;;;;;;;27.22;39.96;158377.09;5013358;28;20441;-75
2022/08/24 10:33:36;;;;;;;5.93;3.17;;;;;;;27.05;41.12;158332.56;5012219;28;20454;-75
2022/08/24 10:36:35;;;;;;;3.90;3.60;;;;;;;26.99;41.06;158316.84;5011681;28;20496;-74
2022/08/24 10:45:47;;;;;;;3.57;3.27;;;;;;;26.81;41.68;158269.69;4980606;28;20456;-75
2022/08/24 10:48:47;;;;;;;3.27;3.00;;;;;;;27.04;41.54;158329.94;5003074;28;20535;-75
2022/08/24 10:51:29;;;;;;;3.10;2.90;;;;;;;27.36;40.41;158413.81;5007311;28;21242;-75
2022/08/24 10:53:57;;;;;;;3.57;3.27;;;;;;;27.20;41.05;158371.88;4999606;28;20506;-75
2022/08/24 10:56:30;;;;;;;3.53;3.23;;;;;;;27.34;40.39;158407.25;5009097;28;20437;-75
2022/08/24 10:59:03;;;;;;;3.73;3.43;;;;;;;27.47;40.44;158442.69;5008912;28;20448;-75
2022/08/24 11:01:32;;;;;;;5.70;3.47;;;;;;;27.17;41.02;158365.31;5010132;28;20551;-75
2022/08/24 11:04:04;;;;;;;3.77;3.47;;;;;;;27.20;41.34;158371.88;5010023;28;20435;-75
2022/08/24 11:06:33;;;;;;;3.60;3.30;;;;;;;27.07;40.78;158337.81;5009740;28;20810;-75
2022/08/24 11:09:05;;;;;;;3.57;3.30;;;;;;;27.02;40.68;158324.72;5009038;28;20842;-75
2022/08/24 11:11:35;;;;;;;3.63;3.37;;;;;;;26.99;41.55;158316.84;5010815;28;20875;-75
2022/08/24 11:14:05;;;;;;;3.60;3.30;;;;;;;27.27;41.11;158390.19;5010259;28;20451;-75
2022/08/24 11:16:35;;;;;;;6.83;2.93;;;;;;;27.42;39.57;158429.59;5011031;28;20531;-75
2022/08/24 11:19:07;;;;;;;3.17;2.87;;;;;;;27.45;39.89;158437.47;5010736;28;20531;-75
2022/08/24 11:21:40;;;;;;;3.40;3.10;;;;;;;27.54;39.76;158461.03;5011155;28;20414;-74
2022/08/24 11:24:10;;;;;;;3.20;2.90;;;;;;;27.43;39.67;158432.19;5013213;28;20456;-75
2022/08/24 11:26:48;;;;;;;3.20;3.00;;;;;;;27.44;40.43;158434.81;5012020;28;20456;-75
2022/08/24 11:29:15;;;;;;;3.23;2.93;;;;;;;27.72;39.73;158506.94;5006775;28;20484;-75
2022/08/24 11:31:43;;;;;;;3.20;3.00;;;;;;;27.78;38.67;158523.94;5008736;28;20543;-74
2022/08/24 11:34:16;;;;;;;3.43;3.13;;;;;;;27.51;38.93;158453.16;5011064;28;20456;-75
2022/08/24 11:36:42;;;;;;;3.37;3.10;;;;;;;27.77;38.46;158521.31;5004596;28;20449;-82
2022/08/24 11:39:16;;;;;;;2.83;2.63;;;;;;;27.88;37.42;158547.56;4975184;28;20921;-82
2022/08/24 11:41:51;;;;;;;6.03;3.40;;;;;;;27.99;37.06;158577.69;5002782;28;20456;-82
2022/08/24 11:44:31;;;;;;;3.23;2.93;;;;;;;27.63;36.26;158484.63;5009143;28;20440;-82
2022/08/24 11:47:01;;;;;;;2.37;2.17;;;;;;;27.49;35.91;158447.94;5010206;28;20472;-82
2022/08/24 11:49:36;;;;;;;2.63;2.43;;;;;;;27.74;36.87;158513.47;5012505;28;20991;-82
2022/08/24 11:52:09;;;;;;;2.63;2.43;;;;;;;27.88;35.49;158547.56;5000648;28;20487;-82
2022/08/24 11:54:41;;;;;;;2.70;2.50;;;;;;;27.96;35.82;158569.81;5009658;28;20518;-82
2022/08/24 11:57:10;;;;;;;2.67;2.47;;;;;;;28.04;35.62;158590.84;5008052;28;20456;-82
2022/08/24 11:59:44;;;;;;;2.97;2.77;;;;;;;28.06;34.79;158594.78;5010514;28;20511;-83